Time;durP1;ratioP1;P1;durP2;ratioP2;P2;SDS_P1;SDS_P2;PMS_P1;PMS_P2;Temp;Humidity;BMP_temperature;BMP_pressure;BME280_temperature;BME280_humidity;BME280_pressure;Samples;Min_cycle;Max_cycle;Signal;HPM_P1;HPM_P2
2021/11/02 00:02:03;;;;;;;;;;;;;;;5.57;100.00;99890.56;5035549;28;20308;-43
2021/11/02 00:04:30;;;;;;;;;;;;;;;5.62;100.00;99894.66;5035771;28;20409;-46
2021/11/02 00:06:57;;;;;;;;;;;;;;;5.56;100.00;99896.72;5035586;28;19933;-45
2021/11/02 00:09:25;;;;;;;;;;;;;;;5.51;100.00;99895.31;5034695;28;20494;-46
2021/11/02 00:11:52;;;;;;;;;;;;;;;5.46;100.00;99898.19;5032867;28;20269;-46
2021/11/02 00:14:19;;;;;;;;;;;;;;;5.49;100.00;99900.59;5033799;28;19925;-44
2021/11/02 00:16:52;;;;;;;;;;;;;;;5.45;100.00;99895.69;5035345;28;19929;-43
2021/11/02 00:19:19;;;;;;;;;;;;;;;5.45;100.00;99890.47;5035236;28;19929;-45
2021/11/02 00:21:48;;;;;;;;;;;;;;;5.44;100.00;99889.63;5035378;28;20388;-44
2021/11/02 00:27:08;;;;;;;;;;;;;;;5.35;100.00;99885.78;5034324;28;19925;-49
2021/11/02 00:29:34;;;;;;;;;;;;;;;5.33;100.00;99889.41;5066913;28;19925;-43
2021/11/02 00:32:01;;;;;;;;;;;;;;;5.31;100.00;99889.50;5035272;28;19925;-43
2021/11/02 00:34:28;;;;;;;;;;;;;;;5.25;100.00;99890.69;5034652;28;19929;-51
2021/11/02 00:36:55;;;;;;;;;;;;;;;5.25;100.00;99895.91;5032539;28;19932;-49
2021/11/02 00:39:22;;;;;;;;;;;;;;;5.19;100.00;99896.25;5065173;28;19979;-51
2021/11/02 00:41:48;;;;;;;;;;;;;;;5.18;100.00;99889.38;5036937;28;19929;-46
2021/11/02 00:44:16;;;;;;;;;;;;;;;5.17;100.00;99897.28;5044222;28;19967;-45
2021/11/02 00:46:43;;;;;;;;;;;;;;;5.10;100.00;99888.13;5052398;28;20334;-47
2021/11/02 00:49:17;;;;;;;;;;;;;;;5.11;100.00;99893.25;5050013;28;19925;-46
2021/11/02 00:51:44;;;;;;;;;;;;;;;5.07;100.00;99890.00;5052354;28;19929;-46
2021/11/02 00:54:11;;;;;;;;;;;;;;;5.12;100.00;99891.50;5042586;28;20388;-47
2021/11/02 00:56:38;;;;;;;;;;;;;;;5.06;100.00;99884.88;5046992;28;19925;-46
2021/11/02 00:59:05;;;;;;;;;;;;;;;4.99;100.00;99879.16;5040941;28;20421;-46
2021/11/02 01:01:32;;;;;;;;;;;;;;;5.00;100.00;99883.44;5044071;28;20490;-45
2021/11/02 01:03:59;;;;;;;;;;;;;;;4.95;100.00;99879.41;5032847;28;20016;-45
2021/11/02 01:06:25;;;;;;;;;;;;;;;4.93;100.00;99878.69;5051193;28;19932;-53
2021/11/02 01:08:52;;;;;;;;;;;;;;;4.94;100.00;99878.59;5046121;28;19925;-49
2021/11/02 01:11:19;;;;;;;;;;;;;;;4.96;100.00;99878.50;5040820;28;19925;-51
2021/11/02 01:13:46;;;;;;;;;;;;;;;4.89;100.00;99876.25;5038582;28;19929;-51
2021/11/02 01:16:12;;;;;;;;;;;;;;;4.86;100.00;99870.38;5037405;28;19929;-50
2021/11/02 01:18:39;;;;;;;;;;;;;;;4.81;100.00;99870.59;5048429;28;19965;-48
2021/11/02 01:21:06;;;;;;;;;;;;;;;4.88;100.00;99871.09;5042213;28;20308;-52
2021/11/02 01:23:33;;;;;;;;;;;;;;;4.85;100.00;99860.88;5056822;28;19925;-51
2021/11/02 01:25:59;;;;;;;;;;;;;;;4.86;100.00;99863.38;5041068;28;19968;-50
2021/11/02 01:28:26;;;;;;;;;;;;;;;4.88;100.00;99866.75;5045836;28;20265;-51
2021/11/02 01:30:53;;;;;;;;;;;;;;;4.85;100.00;99861.72;5043781;28;20380;-50
2021/11/02 01:33:19;;;;;;;;;;;;;;;4.86;100.00;99862.56;5042014;28;19929;-44
2021/11/02 01:35:46;;;;;;;;;;;;;;;4.82;100.00;99866.25;5040852;28;19929;-45
2021/11/02 01:38:14;;;;;;;;;;;;;;;4.81;100.00;99868.00;5046682;28;19929;-42
2021/11/02 01:40:41;;;;;;;;;;;;;;;4.74;100.00;99866.69;5047731;28;20383;-48
2021/11/02 01:43:07;;;;;;;;;;;;;;;4.73;100.00;99859.78;5038995;28;19933;-43
2021/11/02 01:45:34;;;;;;;;;;;;;;;4.68;100.00;99861.84;5039662;28;19926;-44
2021/11/02 01:48:01;;;;;;;;;;;;;;;4.60;100.00;99867.47;5043294;28;20073;-47
2021/11/02 01:50:28;;;;;;;;;;;;;;;4.61;100.00;99865.69;5049948;28;19947;-45
2021/11/02 01:52:55;;;;;;;;;;;;;;;4.56;100.00;99869.38;5049926;28;19972;-45
2021/11/02 01:55:22;;;;;;;;;;;;;;;4.54;100.00;99863.44;5033292;28;19932;-44
2021/11/02 01:57:49;;;;;;;;;;;;;;;4.53;100.00;99866.97;5031698;28;19975;-43
2021/11/02 02:00:16;;;;;;;;;;;;;;;4.50;100.00;99861.94;5045876;28;19932;-52
2021/11/02 02:02:49;;;;;;;;;;;;;;;4.48;100.00;99858.56;5045972;28;20276;-49
2021/11/02 02:05:22;;;;;;;;;;;;;;;4.51;100.00;99858.41;5033400;28;19941;-52
2021/11/02 02:08:08;;;;;;;;;;;;;;;4.46;100.00;99860.41;5033271;28;20354;-52
2021/11/02 02:10:53;;;;;;;;;;;;;;;4.49;100.00;99860.25;5030722;28;20411;-49
2021/11/02 02:13:24;;;;;;;;;;;;;;;4.41;100.00;99867.63;5046785;28;19932;-53
2021/11/02 02:15:52;;;;;;;;;;;;;;;4.46;100.00;99876.03;5029923;28;20308;-50
2021/11/02 02:18:21;;;;;;;;;;;;;;;4.34;100.00;99861.94;5027793;28;19983;-46
2021/11/02 02:20:57;;;;;;;;;;;;;;;4.33;100.00;99865.44;5031682;28;19925;-45
2021/11/02 02:23:44;;;;;;;;;;;;;;;4.40;100.00;99863.34;5032977;28;19987;-48
2021/11/02 02:26:27;;;;;;;;;;;;;;;4.35;100.00;99860.16;5029708;28;19929;-45
2021/11/02 02:28:57;;;;;;;;;;;;;;;4.30;100.00;99854.38;5045885;28;19929;-43
2021/11/02 02:31:24;;;;;;;;;;;;;;;4.23;100.00;99856.47;5033048;28;19925;-46
2021/11/02 02:33:51;;;;;;;;;;;;;;;4.20;100.00;99862.69;5032829;28;20273;-50
2021/11/02 02:36:17;;;;;;;;;;;;;;;4.17;100.00;99865.47;5048217;28;19933;-52
2021/11/02 02:38:45;;;;;;;;;;;;;;;4.20;100.00;99862.69;5048009;28;19932;-53
2021/11/02 02:41:12;;;;;;;;;;;;;;;4.19;100.00;99862.78;5048297;28;20406;-43
2021/11/02 02:43:40;;;;;;;;;;;;;;;4.17;100.00;99855.06;5028951;28;19925;-45
2021/11/02 02:46:07;;;;;;;;;;;;;;;4.19;100.00;99863.59;5045771;28;19971;-43
2021/11/02 02:48:33;;;;;;;;;;;;;;;4.15;100.00;99862.09;5031500;28;19925;-43
2021/11/02 02:51:01;;;;;;;;;;;;;;;4.20;100.00;99865.28;5049991;28;19991;-44
2021/11/02 02:53:29;;;;;;;;;;;;;;;4.17;100.00;99864.59;5050024;28;19983;-45
2021/11/02 02:56:00;;;;;;;;;;;;;;;4.14;100.00;99862.19;5034537;28;19931;-45
2021/11/02 02:58:31;;;;;;;;;;;;;;;4.13;100.00;99861.34;5051847;28;19925;-44
2021/11/02 03:00:58;;;;;;;;;;;;;;;4.12;100.00;99859.66;5019157;28;19932;-44
2021/11/02 03:03:25;;;;;;;;;;;;;;;4.11;100.00;99860.56;5050208;28;20044;-44
2021/11/02 03:05:53;;;;;;;;;;;;;;;4.07;100.00;99859.88;5034141;28;19925;-45
2021/11/02 03:08:22;;;;;;;;;;;;;;;4.09;100.00;99858.97;5035777;28;20380;-45
2021/11/02 03:10:51;;;;;;;;;;;;;;;4.02;100.00;99864.53;5034096;28;19932;-46
2021/11/02 03:13:17;;;;;;;;;;;;;;;4.03;100.00;99852.34;5049684;28;20273;-43
2021/11/02 03:15:53;;;;;;;;;;;;;;;4.06;100.00;99852.16;5051839;28;19933;-43
2021/11/02 03:48:43;;;;;;;;;;;;;;;3.96;100.00;99861.41;5035889;28;19925;-47
2021/11/02 04:23:33;;;;;;;;;;;;;;;3.91;100.00;99872.03;5045977;28;19925;-44
2021/11/02 05:47:08;;;;;;;;;;;;;;;3.99;100.00;99875.06;5033711;28;19925;-48
2021/11/02 05:55:35;;;;;;;;;;;;;;;4.15;100.00;99866.47;5030537;28;19929;-51
2021/11/02 05:58:27;;;;;;;;;;;;;;;4.08;100.00;99871.16;5046445;28;19936;-49
2021/11/02 06:01:09;;;;;;;;;;;;;;;4.02;100.00;99867.13;5033355;28;19971;-48
2021/11/02 06:06:43;;;;;;;;;;;;;;;4.04;100.00;99869.66;5031089;28;20371;-48
2021/11/02 06:28:56;;;;;;;;;;;;;;;4.05;100.00;99855.72;5046117;28;19925;-47
2021/11/02 06:31:32;;;;;;;;;;;;;;;4.16;100.00;99861.16;5033868;28;19929;-48
2021/11/02 06:50:21;;;;;;;;;;;;;;;4.13;100.00;99887.38;5032847;28;19925;-52
2021/11/02 07:25:33;;;;;;;;;;;;;;;4.67;100.00;99900.03;5052118;28;19924;-48
2021/11/02 08:46:40;;;;;;;;;;;;;;;6.26;100.00;99908.25;5054345;28;20292;-53
2021/11/02 08:49:07;;;;;;;;;;;;;;;6.32;100.00;99907.00;5054727;28;19925;-52
2021/11/02 08:51:35;;;;;;;;;;;;;;;6.35;100.00;99901.59;5054436;28;19952;-46
2021/11/02 08:54:02;;;;;;;;;;;;;;;6.36;100.00;99898.88;5054666;28;20414;-46
2021/11/02 08:56:29;;;;;;;;;;;;;;;6.42;100.00;99892.44;5036453;28;19975;-46
2021/11/02 08:58:55;;;;;;;;;;;;;;;6.46;100.00;99887.84;5053209;28;19959;-48
2021/11/02 09:01:42;;;;;;;;;;;;;;;6.55;100.00;99893.34;5053662;28;19929;-43
2021/11/02 09:04:09;;;;;;;;;;;;;;;6.67;100.00;99891.72;5053205;28;20020;-52
2021/11/02 09:06:36;;;;;;;;;;;;;;;6.72;100.00;99894.03;5053133;28;19932;-52
2021/11/02 09:09:06;;;;;;;;;;;;;;;6.77;100.00;99897.19;5034328;28;19936;-46
2021/11/02 09:11:37;;;;;;;;;;;;;;;6.83;100.00;99891.59;5051833;28;19925;-42
2021/11/02 09:14:04;;;;;;;;;;;;;;;6.88;100.00;99892.09;5052984;28;19925;-50
2021/11/02 09:16:30;;;;;;;;;;;;;;;6.95;100.00;99889.94;5054128;28;19928;-44
2021/11/02 09:18:57;;;;;;;;;;;;;;;7.10;100.00;99890.69;5053226;28;20379;-44
2021/11/02 09:21:24;;;;;;;;;;;;;;;7.11;100.00;99892.38;5054011;28;19924;-52
2021/11/02 09:23:52;;;;;;;;;;;;;;;7.15;100.00;99888.63;5054373;28;19924;-51
2021/11/02 09:26:20;;;;;;;;;;;;;;;7.24;100.00;99898.50;5052961;28;19986;-53
2021/11/02 09:28:47;;;;;;;;;;;;;;;7.25;100.00;99889.72;5051414;28;19925;-51
2021/11/02 09:31:16;;;;;;;;;;;;;;;7.33;100.00;99890.97;5051155;28;19932;-51
2021/11/02 09:33:42;;;;;;;;;;;;;;;7.40;100.00;99892.22;5049724;28;19928;-53
2021/11/02 09:36:10;;;;;;;;;;;;;;;7.40;100.00;99895.69;5050482;28;19929;-53
2021/11/02 09:38:46;;;;;;;;;;;;;;;7.48;100.00;99897.78;5052240;28;19928;-49
2021/11/02 09:41:20;;;;;;;;;;;;;;;7.53;100.00;99894.88;5052719;28;19925;-49
2021/11/02 09:44:08;;;;;;;;;;;;;;;7.55;100.00;99901.69;5053889;28;19928;-44
2021/11/02 09:46:56;;;;;;;;;;;;;;;7.61;100.00;99903.88;5049898;28;19929;-44
2021/11/02 09:49:42;;;;;;;;;;;;;;;7.68;100.00;99903.47;5051338;28;19925;-51
2021/11/02 09:52:18;;;;;;;;;;;;;;;7.73;100.00;99909.19;5053630;28;19925;-53
2021/11/02 09:55:11;;;;;;;;;;;;;;;7.82;100.00;99905.97;5053572;28;19932;-54
2021/11/02 09:57:51;;;;;;;;;;;;;;;7.87;100.00;99901.25;5052165;28;20509;-52
2021/11/02 10:00:19;;;;;;;;;;;;;;;7.87;100.00;99914.34;5051369;28;20439;-50
2021/11/02 10:02:56;;;;;;;;;;;;;;;7.90;100.00;99906.28;5048689;28;19971;-50
2021/11/02 10:05:32;;;;;;;;;;;;;;;7.92;100.00;99904.41;5051478;28;20019;-52
2021/11/02 10:08:06;;;;;;;;;;;;;;;7.95;100.00;99912.03;5051975;28;19960;-53
2021/11/02 10:10:44;;;;;;;;;;;;;;;7.86;100.00;99912.66;5053225;28;19972;-56
2021/11/02 10:13:22;;;;;;;;;;;;;;;7.87;100.00;99911.72;5052109;28;19931;-44
2021/11/02 10:16:03;;;;;;;;;;;;;;;7.93;100.00;99913.94;5049004;28;19931;-46
2021/11/02 10:18:30;;;;;;;;;;;;;;;7.94;100.00;99914.75;5050619;28;20372;-44
2021/11/02 10:21:16;;;;;;;;;;;;;;;8.04;100.00;99915.78;5051461;28;19925;-48
2021/11/02 10:24:01;;;;;;;;;;;;;;;8.05;100.00;99906.16;5049280;28;19929;-49
2021/11/02 10:26:37;;;;;;;;;;;;;;;8.12;100.00;99910.03;5051549;28;20304;-51
2021/11/02 10:29:15;;;;;;;;;;;;;;;8.21;100.00;99900.72;5051624;28;20403;-50
2021/11/02 10:32:01;;;;;;;;;;;;;;;8.19;100.00;99897.34;5053093;28;20403;-47
2021/11/02 10:34:34;;;;;;;;;;;;;;;8.31;100.00;99900.88;5052533;28;20376;-52
2021/11/02 10:37:16;;;;;;;;;;;;;;;8.33;100.00;99898.97;5051998;28;19928;-52
2021/11/02 10:40:02;;;;;;;;;;;;;;;8.39;100.00;99895.94;5050518;28;19932;-51
2021/11/02 10:42:49;;;;;;;;;;;;;;;8.47;100.00;99896.25;5051978;28;19925;-52
2021/11/02 10:45:18;;;;;;;;;;;;;;;8.59;100.00;99900.63;5052827;28;20354;-51
2021/11/02 10:47:54;;;;;;;;;;;;;;;8.61;100.00;99896.09;5051460;28;19932;-53
2021/11/02 10:50:22;;;;;;;;;;;;;;;8.53;100.00;99890.56;5049490;28;19932;-44
2021/11/02 10:52:49;;;;;;;;;;;;;;;8.62;100.00;99895.16;5051591;28;19928;-45
2021/11/02 10:55:24;;;;;;;;;;;;;;;8.59;100.00;99892.75;5052443;28;19925;-54
2021/11/02 10:57:54;;;;;;;;;;;;;;;8.65;100.00;99898.50;5052222;28;19925;-52
2021/11/02 11:00:21;;;;;;;;;;;;;;;8.68;100.00;99901.72;5048872;28;19929;-53
2021/11/02 11:02:48;;;;;;;;;;;;;;;8.72;100.00;99897.13;5050021;28;19924;-52
2021/11/02 11:05:14;;;;;;;;;;;;;;;8.74;100.00;99897.81;5051373;28;20330;-52
2021/11/02 11:07:42;;;;;;;;;;;;;;;8.82;100.00;99899.91;5051137;28;19929;-45
2021/11/02 11:10:10;;;;;;;;;;;;;;;8.82;100.00;99900.75;5051084;28;19925;-43
2021/11/02 11:12:56;;;;;;;;;;;;;;;8.83;100.00;99898.97;5054070;28;20386;-44
2021/11/02 11:15:23;;;;;;;;;;;;;;;8.92;100.00;99904.38;5054071;28;19925;-51
2021/11/02 11:17:52;;;;;;;;;;;;;;;9.01;100.00;99899.41;5052933;28;19932;-50
2021/11/02 11:20:19;;;;;;;;;;;;;;;9.06;100.00;99897.28;5038980;28;19990;-52
2021/11/02 11:22:48;;;;;;;;;;;;;;;9.09;100.00;99889.16;5052796;28;19933;-48
2021/11/02 11:25:25;;;;;;;;;;;;;;;9.16;100.00;99890.38;5054449;28;19928;-50
2021/11/02 11:27:57;;;;;;;;;;;;;;;9.18;100.00;99890.28;5055132;28;19948;-53
2021/11/02 11:30:28;;;;;;;;;;;;;;;9.22;100.00;99892.56;5056001;28;20291;-50
2021/11/02 11:32:55;;;;;;;;;;;;;;;9.29;100.00;99892.94;5056139;28;20015;-53
2021/11/02 11:35:21;;;;;;;;;;;;;;;9.33;100.00;99893.56;5052296;28;19924;-52
2021/11/02 11:37:49;;;;;;;;;;;;;;;9.32;100.00;99894.50;5053940;28;19925;-53
2021/11/02 11:40:20;;;;;;;;;;;;;;;9.34;100.00;99884.72;5056285;28;19938;-53
2021/11/02 11:42:48;;;;;;;;;;;;;;;9.33;100.00;99888.31;5056172;28;20437;-53
2021/11/02 11:45:16;;;;;;;;;;;;;;;9.40;100.00;99884.28;5052694;28;19925;-51
2021/11/02 11:47:43;;;;;;;;;;;;;;;9.51;100.00;99888.72;5051447;28;19929;-51
2021/11/02 11:50:18;;;;;;;;;;;;;;;9.54;100.00;99881.41;5054700;28;19925;-53
2021/11/02 11:52:48;;;;;;;;;;;;;;;9.60;100.00;99886.22;5055703;28;20429;-52
2021/11/02 11:55:23;;;;;;;;;;;;;;;9.66;100.00;99879.66;5052641;28;19928;-51
2021/11/02 11:58:00;;;;;;;;;;;;;;;9.67;100.00;99870.84;5052654;28;19931;-54
2021/11/02 12:00:26;;;;;;;;;;;;;;;9.68;99.54;99875.13;5055691;28;19925;-55
2021/11/02 12:03:12;;;;;;;;;;;;;;;9.60;99.41;99875.72;5054572;28;20023;-55
2021/11/02 12:05:43;;;;;;;;;;;;;;;9.59;100.00;99873.22;5052923;28;19932;-54
2021/11/02 12:08:23;;;;;;;;;;;;;;;9.57;98.82;99875.09;5054748;28;19925;-51
2021/11/02 12:10:50;;;;;;;;;;;;;;;9.57;98.84;99860.22;5055263;28;19932;-53
2021/11/02 12:13:17;;;;;;;;;;;;;;;9.59;98.60;99873.22;5055031;28;19925;-52
2021/11/02 12:15:47;;;;;;;;;;;;;;;9.72;99.43;99863.44;5053851;28;19928;-54
2021/11/02 12:18:18;;;;;;;;;;;;;;;9.72;99.02;99857.34;5053010;28;19979;-54
2021/11/02 12:20:45;;;;;;;;;;;;;;;9.76;97.50;99857.00;5052418;28;20366;-54
2021/11/02 12:23:17;;;;;;;;;;;;;;;9.90;97.57;99849.84;5053106;28;20372;-54
2021/11/02 12:25:54;;;;;;;;;;;;;;;9.97;99.88;99851.84;5055248;28;19928;-51
2021/11/02 12:28:24;;;;;;;;;;;;;;;10.02;96.48;99856.75;5055202;28;19954;-54
2021/11/02 12:30:51;;;;;;;;;;;;;;;10.08;97.87;99852.81;5053815;28;19924;-54
2021/11/02 12:33:17;;;;;;;;;;;;;;;10.07;95.69;99845.88;5055222;28;19933;-54
2021/11/02 12:35:48;;;;;;;;;;;;;;;10.08;96.84;99843.13;5053312;28;20303;-45
2021/11/02 12:38:14;;;;;;;;;;;;;;;10.05;97.29;99842.53;5055154;28;19951;-48
2021/11/02 12:40:43;;;;;;;;;;;;;;;10.04;98.20;99846.13;5052535;28;19929;-54
2021/11/02 12:43:22;;;;;;;;;;;;;;;10.07;96.92;99830.13;5051701;28;20062;-53
2021/11/02 12:45:48;;;;;;;;;;;;;;;9.98;95.71;99837.78;5054068;28;19932;-55
2021/11/02 12:48:15;;;;;;;;;;;;;;;9.93;97.82;99836.47;5037501;28;19928;-54
2021/11/02 12:50:58;;;;;;;;;;;;;;;10.02;97.35;99838.38;5053626;28;19929;-54
2021/11/02 12:53:25;;;;;;;;;;;;;;;10.04;96.59;99836.44;5054829;28;19978;-51
2021/11/02 12:55:52;;;;;;;;;;;;;;;10.04;96.54;99831.19;5053586;28;20371;-56
2021/11/02 12:58:20;;;;;;;;;;;;;;;10.12;97.93;99825.34;5054782;28;19947;-55
2021/11/02 13:00:50;;;;;;;;;;;;;;;10.20;95.39;99822.09;5054580;28;19931;-56
2021/11/02 13:03:28;;;;;;;;;;;;;;;10.13;95.88;99824.41;5051968;28;19960;-55
2021/11/02 13:05:55;;;;;;;;;;;;;;;10.19;96.00;99821.25;5051891;28;19929;-52
2021/11/02 13:08:27;;;;;;;;;;;;;;;10.12;95.13;99822.72;5052724;28;19937;-55
2021/11/02 13:10:54;;;;;;;;;;;;;;;10.12;95.77;99823.53;5050187;28;19928;-55
2021/11/02 13:13:22;;;;;;;;;;;;;;;10.13;95.23;99825.22;5033786;28;19931;-54
2021/11/02 13:15:50;;;;;;;;;;;;;;;10.21;95.81;99823.75;5054098;28;19928;-53
2021/11/02 13:18:43;;;;;;;;;;;;;;;10.32;94.07;99824.59;5053090;28;19925;-52
2021/11/02 13:21:20;;;;;;;;;;;;;;;10.20;94.56;99820.31;5052851;28;19931;-52
2021/11/02 13:24:02;;;;;;;;;;;;;;;10.04;94.86;99833.81;5054576;28;19990;-47
2021/11/02 13:26:29;;;;;;;;;;;;;;;10.12;95.43;99827.97;5054080;28;19978;-52
2021/11/02 13:29:27;;;;;;;;;;;;;;;10.11;95.59;99821.84;5053965;28;20376;-53
2021/11/02 13:31:54;;;;;;;;;;;;;;;10.17;95.12;99820.56;5041728;28;19939;-55
2021/11/02 13:34:30;;;;;;;;;;;;;;;10.11;96.19;99821.84;5052538;28;19925;-54
2021/11/02 13:37:07;;;;;;;;;;;;;;;10.32;93.29;99819.31;5053253;28;19929;-55
2021/11/02 13:39:53;;;;;;;;;;;;;;;10.31;95.35;99822.09;5053679;28;19974;-53
2021/11/02 13:42:39;;;;;;;;;;;;;;;10.28;94.25;99820.53;5053758;28;19929;-54
2021/11/02 13:45:07;;;;;;;;;;;;;;;10.30;92.82;99825.66;5049698;28;20354;-47
2021/11/02 13:47:35;;;;;;;;;;;;;;;10.22;94.30;99821.00;5049746;28;20384;-46
2021/11/02 13:50:02;;;;;;;;;;;;;;;10.28;94.19;99819.69;5049344;28;19975;-45
2021/11/02 13:52:28;;;;;;;;;;;;;;;10.26;93.70;99814.53;5049858;28;19961;-44
2021/11/02 13:54:56;;;;;;;;;;;;;;;10.18;94.59;99811.69;5035596;28;19928;-45
2021/11/02 13:57:22;;;;;;;;;;;;;;;10.18;95.30;99811.69;5052444;28;20332;-46
2021/11/02 13:59:49;;;;;;;;;;;;;;;10.24;94.82;99816.47;5053303;28;19928;-48
2021/11/02 14:02:16;;;;;;;;;;;;;;;10.22;94.09;99809.66;5053445;28;20301;-46
2021/11/02 14:04:43;;;;;;;;;;;;;;;10.21;93.82;99816.72;5049189;28;20587;-46
2021/11/02 14:07:11;;;;;;;;;;;;;;;10.16;94.35;99821.50;5048544;28;20376;-45
2021/11/02 14:09:39;;;;;;;;;;;;;;;10.20;94.70;99820.31;5053301;28;19924;-46
2021/11/02 14:12:25;;;;;;;;;;;;;;;10.20;95.09;99815.06;5051897;28;19929;-43
2021/11/02 14:15:21;;;;;;;;;;;;;;;10.16;95.37;99824.13;5053372;28;19947;-50
2021/11/02 14:17:54;;;;;;;;;;;;;;;10.19;95.67;99820.44;5044817;28;19925;-54
2021/11/02 14:20:32;;;;;;;;;;;;;;;10.11;95.79;99818.41;5051383;28;20276;-53
2021/11/02 14:23:00;;;;;;;;;;;;;;;10.10;97.19;99821.97;5048491;28;19928;-53
2021/11/02 14:25:37;;;;;;;;;;;;;;;10.06;97.69;99828.44;5048856;28;19925;-51
2021/11/02 14:28:04;;;;;;;;;;;;;;;10.07;97.97;99828.31;5064531;28;19929;-54
2021/11/02 14:30:30;;;;;;;;;;;;;;;10.13;98.33;99829.66;5069316;28;19924;-53
2021/11/02 14:33:20;;;;;;;;;;;;;;;10.16;98.37;99832.03;5061749;28;19925;-52
2021/11/02 14:35:49;;;;;;;;;;;;;;;10.08;98.66;99831.78;5057737;28;19932;-50
2021/11/02 14:38:26;;;;;;;;;;;;;;;10.09;98.93;99831.66;5069230;28;20272;-50
2021/11/02 14:41:31;;;;;;;;;;;;;;;10.12;99.69;99833.22;5045478;28;19924;-53
2021/11/02 14:44:13;;;;;;;;;;;;;;;10.12;99.20;99825.34;5054265;28;20447;-53
2021/11/02 14:46:40;;;;;;;;;;;;;;;10.09;99.84;99829.03;5040587;28;20023;-51
2021/11/02 14:49:08;;;;;;;;;;;;;;;10.04;100.00;99827.75;5063722;28;20021;-54
2021/11/02 14:51:35;;;;;;;;;;;;;;;9.98;98.04;99835.13;5043157;28;19951;-50
2021/11/02 14:54:18;;;;;;;;;;;;;;;9.89;97.96;99821.91;5055040;28;19925;-51
2021/11/02 14:57:19;;;;;;;;;;;;;;;9.86;98.21;99828.22;5042550;28;19931;-50
2021/11/02 14:59:47;;;;;;;;;;;;;;;9.85;96.67;99815.22;5059494;28;20012;-53
2021/11/02 15:02:16;;;;;;;;;;;;;;;9.80;97.07;99821.66;5055018;28;19979;-53
2021/11/02 15:04:51;;;;;;;;;;;;;;;9.74;97.82;99826.56;5046121;28;20494;-53
2021/11/02 15:07:18;;;;;;;;;;;;;;;9.81;97.62;99828.56;5043132;28;19932;-52
2021/11/02 15:09:44;;;;;;;;;;;;;;;9.74;97.28;99827.38;5054532;28;19934;-54
2021/11/02 15:12:11;;;;;;;;;;;;;;;9.68;98.08;99829.66;5054500;28;19928;-51
2021/11/02 15:14:41;;;;;;;;;;;;;;;9.74;97.39;99829.19;5039383;28;19924;-52
2021/11/02 15:17:08;;;;;;;;;;;;;;;9.76;95.98;99837.75;5064505;28;19933;-53
2021/11/02 15:19:42;;;;;;;;;;;;;;;9.74;96.29;99829.19;5065291;28;19924;-51
2021/11/02 15:22:12;;;;;;;;;;;;;;;9.72;95.18;99829.31;5056094;28;19924;-49
2021/11/02 15:24:40;;;;;;;;;;;;;;;9.69;96.47;99837.41;5051161;28;20339;-51
2021/11/02 15:27:20;;;;;;;;;;;;;;;9.58;96.64;99832.97;5049240;28;19932;-52
2021/11/02 15:30:07;;;;;;;;;;;;;;;9.60;97.19;99835.50;5047609;28;20423;-51
2021/11/02 15:32:41;;;;;;;;;;;;;;;9.56;96.75;99839.31;5051352;28;20338;-53
2021/11/02 15:35:10;;;;;;;;;;;;;;;9.54;96.87;99834.16;5052307;28;19979;-50
2021/11/02 15:37:41;;;;;;;;;;;;;;;9.50;96.42;99835.34;5050892;28;20732;-52
2021/11/02 15:40:09;;;;;;;;;;;;;;;9.46;96.32;99837.41;5048569;28;19936;-53
2021/11/02 15:42:37;;;;;;;;;;;;;;;9.42;97.06;99835.97;5049716;28;19925;-53
2021/11/02 15:45:30;;;;;;;;;;;;;;;9.44;97.63;99841.09;5047895;28;20398;-52
2021/11/02 15:48:18;;;;;;;;;;;;;;;9.43;97.20;99844.66;5047364;28;20024;-48
2021/11/02 15:50:46;;;;;;;;;;;;;;;9.43;98.27;99844.66;5052100;28;20555;-52
2021/11/02 15:53:13;;;;;;;;;;;;;;;9.34;98.14;99846.22;5052139;28;20384;-51
2021/11/02 15:55:39;;;;;;;;;;;;;;;9.27;98.60;99850.22;5051893;28;19929;-52
2021/11/02 15:58:07;;;;;;;;;;;;;;;9.08;99.07;99853.41;5050838;28;20272;-50
2021/11/02 16:00:38;;;;;;;;;;;;;;;9.12;99.53;99844.34;5054438;28;19952;-49
2021/11/02 16:03:05;;;;;;;;;;;;;;;9.12;97.91;99844.34;5054295;28;19932;-49
2021/11/02 16:05:33;;;;;;;;;;;;;;;9.14;98.69;99850.31;5054241;28;19925;-51
2021/11/02 16:08:01;;;;;;;;;;;;;;;9.06;98.67;99845.66;5037280;28;20269;-52
2021/11/02 16:10:28;;;;;;;;;;;;;;;9.08;98.39;99846.38;5050128;28;20232;-51
2021/11/02 16:12:56;;;;;;;;;;;;;;;9.02;99.15;99848.63;5051625;28;20342;-54
2021/11/02 16:15:33;;;;;;;;;;;;;;;9.00;99.19;99848.75;5055811;28;20020;-52
2021/11/02 16:18:04;;;;;;;;;;;;;;;8.87;99.10;99850.59;5055326;28;19925;-49
2021/11/02 16:20:35;;;;;;;;;;;;;;;8.89;99.55;99849.53;5053952;28;20007;-50
2021/11/02 16:23:15;;;;;;;;;;;;;;;8.91;99.40;99849.41;5054125;28;20629;-51
2021/11/02 16:25:55;;;;;;;;;;;;;;;8.90;100.00;99850.34;5051894;28;19924;-45
2021/11/02 16:28:25;;;;;;;;;;;;;;;8.95;99.66;99848.25;5052513;28;20403;-53
2021/11/02 16:30:57;;;;;;;;;;;;;;;8.93;99.09;99850.13;5054125;28;19925;-50
2021/11/02 16:33:38;;;;;;;;;;;;;;;8.89;100.00;99851.31;5053670;28;19925;-51
2021/11/02 16:36:24;;;;;;;;;;;;;;;8.94;99.80;99857.91;5053358;28;19932;-51
2021/11/02 16:38:56;;;;;;;;;;;;;;;8.94;99.29;99857.03;5055038;28;20387;-53
2021/11/02 16:41:23;;;;;;;;;;;;;;;8.85;100.00;99857.72;5053841;28;19928;-53
2021/11/02 16:43:51;;;;;;;;;;;;;;;8.80;100.00;99872.00;5054854;28;20419;-52
2021/11/02 16:46:31;;;;;;;;;;;;;;;8.76;99.88;99862.69;5054735;28;19928;-48
2021/11/02 16:49:02;;;;;;;;;;;;;;;8.74;98.39;99871.63;5053721;28;20419;-52
2021/11/02 16:51:44;;;;;;;;;;;;;;;8.73;98.94;99867.34;5054759;28;19929;-53
2021/11/02 16:54:11;;;;;;;;;;;;;;;8.67;99.02;99865.16;5054738;28;19929;-49
2021/11/02 16:56:54;;;;;;;;;;;;;;;8.73;99.04;99869.97;5054702;28;19924;-52
2021/11/02 16:59:44;;;;;;;;;;;;;;;8.70;98.57;99872.78;5054486;28;19925;-54
2021/11/02 17:02:17;;;;;;;;;;;;;;;8.66;97.95;99873.97;5044730;28;19924;-54
2021/11/02 17:05:03;;;;;;;;;;;;;;;8.60;98.39;99875.25;5050627;28;19990;-53
2021/11/02 17:07:33;;;;;;;;;;;;;;;8.60;98.59;99875.25;5054407;28;19925;-53
2021/11/02 17:10:30;;;;;;;;;;;;;;;8.66;98.55;99874.81;5054266;28;19925;-53
2021/11/02 17:13:00;;;;;;;;;;;;;;;8.60;98.14;99883.97;5040396;28;20292;-51
2021/11/02 17:15:28;;;;;;;;;;;;;;;8.56;98.68;99885.13;5054326;28;19931;-49
2021/11/02 17:17:55;;;;;;;;;;;;;;;8.50;98.50;99885.56;5054168;28;20355;-44
2021/11/02 17:20:22;;;;;;;;;;;;;;;8.49;97.95;99883.88;5053841;28;20354;-50
2021/11/02 17:22:49;;;;;;;;;;;;;;;8.42;97.82;99887.84;5053705;28;20383;-53
2021/11/02 17:25:17;;;;;;;;;;;;;;;8.36;97.08;99886.50;5051160;28;19933;-52
2021/11/02 17:27:47;;;;;;;;;;;;;;;8.34;97.74;99890.19;5049342;28;19951;-51
2021/11/02 17:30:24;;;;;;;;;;;;;;;8.32;97.65;99892.91;5054117;28;19925;-52
2021/11/02 17:32:51;;;;;;;;;;;;;;;8.33;97.03;99894.59;5053922;28;19970;-52
2021/11/02 17:35:18;;;;;;;;;;;;;;;8.18;97.08;99900.91;5052498;28;20074;-43
2021/11/02 17:37:45;;;;;;;;;;;;;;;8.22;97.30;99904.97;5052591;28;19924;-49
2021/11/02 17:40:12;;;;;;;;;;;;;;;8.17;97.32;99907.09;5052717;28;19983;-47
2021/11/02 17:42:41;;;;;;;;;;;;;;;8.12;97.63;99912.66;5052432;28;20269;-45
2021/11/02 17:45:09;;;;;;;;;;;;;;;8.04;98.25;99912.34;5053438;28;19925;-45
2021/11/02 17:47:38;;;;;;;;;;;;;;;8.04;98.16;99914.97;5052184;28;19928;-45
2021/11/02 17:50:05;;;;;;;;;;;;;;;8.03;98.42;99918.50;5049002;28;19925;-45
2021/11/02 17:52:31;;;;;;;;;;;;;;;7.97;99.03;99921.56;5050306;28;19928;-44
2021/11/02 17:54:58;;;;;;;;;;;;;;;7.91;99.12;99926.28;5053525;28;19924;-43
2021/11/02 17:57:25;;;;;;;;;;;;;;;7.85;99.42;99931.91;5050380;28;19924;-43
2021/11/02 17:59:51;;;;;;;;;;;;;;;7.81;99.29;99940.94;5049878;28;19929;-43
2021/11/02 18:02:18;;;;;;;;;;;;;;;7.78;99.34;99942.00;5034464;28;19936;-45
2021/11/02 18:04:45;;;;;;;;;;;;;;;7.74;99.50;99948.38;5052369;28;19925;-43
2021/11/02 18:07:12;;;;;;;;;;;;;;;7.69;99.68;99954.84;5032432;28;20462;-44
2021/11/02 18:09:39;;;;;;;;;;;;;;;7.61;99.87;99953.59;5049323;28;19931;-45
2021/11/02 18:12:05;;;;;;;;;;;;;;;7.57;100.00;99952.13;5051199;28;19925;-45
2021/11/02 18:14:32;;;;;;;;;;;;;;;7.54;100.00;99949.72;5048065;28;19932;-44
2021/11/02 18:17:00;;;;;;;;;;;;;;;7.50;100.00;99952.63;5031864;28;19931;-46